createdAt,value
2023-01-11T00:00:57.412Z,1.42
2023-01-11T00:03:24.558Z,1.18
2023-01-11T00:05:56.620Z,1.08
2023-01-11T00:08:26.628Z,1.50
2023-01-11T00:10:54.273Z,1.49
2023-01-11T00:13:21.257Z,1.48
2023-01-11T00:15:49.288Z,0.98
2023-01-11T00:18:16.118Z,0.92
2023-01-11T00:20:42.896Z,1.15
2023-01-11T00:23:10.308Z,1.07
2023-01-11T00:25:37.745Z,1.43
2023-01-11T00:28:05.622Z,1.41
2023-01-11T00:30:35.347Z,1.42
2023-01-11T00:33:03.264Z,0.75
2023-01-11T00:35:32.697Z,1.00
2023-01-11T00:37:59.946Z,1.36
2023-01-11T00:40:27.922Z,0.83
2023-01-11T00:43:13.064Z,0.43
2023-01-11T00:45:58.765Z,0.97
2023-01-11T00:48:25.799Z,1.24
2023-01-11T00:50:55.348Z,0.63
2023-01-11T00:53:22.500Z,1.06
2023-01-11T00:55:49.524Z,0.66
2023-01-11T00:58:16.475Z,1.21
2023-01-11T01:00:43.678Z,1.01
2023-01-11T01:03:10.517Z,1.01
2023-01-11T01:05:39.133Z,1.25
2023-01-11T01:08:06.534Z,1.27
2023-01-11T01:10:33.860Z,1.03
2023-01-11T01:13:19.159Z,0.99
2023-01-11T01:15:46.014Z,1.06
2023-01-11T01:18:13.809Z,0.93
2023-01-11T01:20:40.784Z,0.56
2023-01-11T01:23:07.579Z,0.69
2023-01-11T01:25:37.883Z,0.82
2023-01-11T01:28:04.846Z,0.65
2023-01-11T01:30:32.193Z,0.51
2023-01-11T01:32:59.308Z,0.30
2023-01-11T01:35:26.306Z,0.35
2023-01-11T01:37:53.597Z,0.63
2023-01-11T01:40:21.873Z,0.24
2023-01-11T01:42:53.405Z,0.77
2023-01-11T01:45:26.912Z,0.76
2023-01-11T01:47:59.245Z,0.80
2023-01-11T01:50:28.411Z,0.79
2023-01-11T01:53:02.639Z,0.34
2023-01-11T01:55:35.796Z,0.94
2023-01-11T01:58:06.318Z,0.55
2023-01-11T02:00:33.678Z,0.84
2023-01-11T02:03:02.028Z,0.98
2023-01-11T02:05:29.414Z,0.26
2023-01-11T02:07:58.970Z,0.56
2023-01-11T02:10:28.306Z,0.79
2023-01-11T02:13:05.850Z,0.40
2023-01-11T02:15:32.777Z,0.72
2023-01-11T02:17:59.782Z,0.92
2023-01-11T02:20:35.949Z,0.34
2023-01-11T02:23:21.777Z,0.78
2023-01-11T02:26:26.063Z,1.15
2023-01-11T02:29:00.458Z,1.24
2023-01-11T02:31:33.947Z,1.30
2023-01-11T02:34:38.351Z,1.43
2023-01-11T02:37:18.591Z,1.33
2023-01-11T02:39:56.511Z,1.21
2023-01-11T02:42:51.477Z,1.43
2023-01-11T02:45:24.129Z,1.48
2023-01-11T02:47:57.360Z,1.59
2023-01-11T02:50:39.037Z,1.49
2023-01-11T02:53:24.500Z,1.67
2023-01-11T02:55:58.797Z,1.60
2023-01-11T02:58:30.616Z,1.66
2023-01-11T03:00:58.785Z,1.72
2023-01-11T03:03:29.771Z,1.70
2023-01-11T03:06:08.426Z,1.80
2023-01-11T03:08:41.366Z,1.98
2023-01-11T03:11:14.611Z,1.64
2023-01-11T03:13:47.869Z,1.96
2023-01-11T03:16:20.632Z,1.43
2023-01-11T03:18:53.877Z,1.76
2023-01-11T03:21:23.748Z,1.64
2023-01-11T03:24:05.759Z,1.53
2023-01-11T03:27:02.793Z,1.51
2023-01-11T03:29:32.502Z,1.52
2023-01-11T03:32:05.415Z,1.54
2023-01-11T03:34:44.579Z,1.28
2023-01-11T03:37:21.125Z,1.33
2023-01-11T03:40:10.821Z,1.33
2023-01-11T03:43:01.976Z,1.24
2023-01-11T03:45:33.371Z,1.34
2023-01-11T03:48:02.982Z,1.38
2023-01-11T03:50:31.900Z,1.32
2023-01-11T03:53:01.857Z,1.39
2023-01-11T03:55:34.031Z,1.53
2023-01-11T03:58:01.004Z,1.14
2023-01-11T04:00:30.141Z,1.59
2023-01-11T04:02:57.152Z,1.47
2023-01-11T04:05:23.831Z,1.53
2023-01-11T04:07:51.031Z,1.39
2023-01-11T04:10:18.238Z,1.52
2023-01-11T04:12:50.123Z,1.68
2023-01-11T04:15:17.764Z,1.47
2023-01-11T04:17:45.482Z,1.21
2023-01-11T04:20:13.466Z,1.47
2023-01-11T04:22:40.799Z,1.76
2023-01-11T04:25:09.013Z,1.78
2023-01-11T04:27:36.188Z,1.67
2023-01-11T04:30:04.486Z,1.69
2023-01-11T04:32:31.524Z,1.60
2023-01-11T04:34:58.649Z,1.34
2023-01-11T04:37:25.668Z,1.44
2023-01-11T04:39:53.043Z,1.62
2023-01-11T04:42:20.026Z,1.75
2023-01-11T04:44:51.523Z,1.77
2023-01-11T04:47:21.553Z,1.64
2023-01-11T04:49:49.120Z,1.58
2023-01-11T04:52:20.323Z,1.56
2023-01-11T04:54:48.869Z,1.81
2023-01-11T04:57:17.464Z,1.43
2023-01-11T04:59:47.086Z,1.85
2023-01-11T05:02:15.506Z,1.52
2023-01-11T05:04:42.254Z,1.84
2023-01-11T05:07:10.550Z,1.21
2023-01-11T05:09:37.913Z,1.63
2023-01-11T05:12:05.574Z,1.77
2023-01-11T05:14:32.842Z,1.74
2023-01-11T05:17:00.137Z,1.64
2023-01-11T05:19:27.075Z,1.74
2023-01-11T05:21:59.529Z,1.25
2023-01-11T05:24:26.345Z,1.47
2023-01-11T05:26:53.733Z,1.37
2023-01-11T05:29:21.597Z,1.39
2023-01-11T05:31:49.740Z,1.00
2023-01-11T05:34:18.373Z,1.65
2023-01-11T05:36:46.069Z,1.81
2023-01-11T05:39:17.560Z,1.68
2023-01-11T05:41:44.957Z,1.66
2023-01-11T05:44:31.886Z,1.71
2023-01-11T05:47:00.476Z,1.39
2023-01-11T05:49:27.433Z,1.84
2023-01-11T05:51:54.598Z,1.66
2023-01-11T05:54:21.825Z,1.84
2023-01-11T05:56:48.919Z,1.28
2023-01-11T05:59:15.784Z,1.71
2023-01-11T06:01:43.637Z,1.99
2023-01-11T06:04:10.329Z,1.92
2023-01-11T06:06:37.925Z,1.97
2023-01-11T06:09:04.628Z,1.85
2023-01-11T06:11:33.290Z,1.91
2023-01-11T06:13:59.929Z,1.85
2023-01-11T06:16:26.752Z,1.92
2023-01-11T06:18:54.455Z,1.60
2023-01-11T06:21:22.110Z,1.59
2023-01-11T06:23:52.901Z,1.66
2023-01-11T06:26:22.562Z,1.91
2023-01-11T06:28:51.110Z,1.87
2023-01-11T06:31:18.848Z,2.16
2023-01-11T06:33:47.329Z,2.39
2023-01-11T06:36:15.457Z,2.35
2023-01-11T06:38:43.167Z,2.38
2023-01-11T06:41:11.794Z,2.37
2023-01-11T06:43:41.886Z,2.43
2023-01-11T06:46:17.024Z,2.38
2023-01-11T06:48:44.815Z,2.00
2023-01-11T06:51:12.741Z,2.32
2023-01-11T06:53:41.335Z,2.28
2023-01-11T06:56:11.227Z,2.47
2023-01-11T06:58:38.443Z,2.31
2023-01-11T07:01:06.176Z,2.41
2023-01-11T07:03:33.615Z,2.59
2023-01-11T07:06:01.824Z,2.60
2023-01-11T07:08:28.743Z,2.71
2023-01-11T07:10:55.872Z,2.78
2023-01-11T07:13:23.148Z,2.82
2023-01-11T07:15:50.894Z,2.86
2023-01-11T07:18:19.327Z,2.75
2023-01-11T07:20:47.530Z,2.77
2023-01-11T07:23:14.837Z,2.95
2023-01-11T07:25:42.006Z,2.84
2023-01-11T07:28:10.078Z,2.91
2023-01-11T07:30:56.183Z,2.80
2023-01-11T07:33:24.336Z,2.76
2023-01-11T07:35:51.068Z,3.13
2023-01-11T07:38:17.849Z,3.39
2023-01-11T07:40:44.617Z,3.11
2023-01-11T07:43:15.365Z,3.25
2023-01-11T07:45:49.990Z,2.98
2023-01-11T07:48:27.053Z,2.96
2023-01-11T07:50:54.863Z,2.79
2023-01-11T07:53:25.586Z,2.78
2023-01-11T07:55:52.872Z,2.89
2023-01-11T07:58:20.234Z,2.83
2023-01-11T08:00:47.434Z,2.75
2023-01-11T08:03:15.213Z,2.77
2023-01-11T08:05:41.950Z,2.69
2023-01-11T08:08:09.513Z,2.80
2023-01-11T08:10:36.324Z,2.67
2023-01-11T08:13:21.796Z,2.91
2023-01-11T08:15:49.042Z,2.84
2023-01-11T08:18:17.798Z,2.90
2023-01-11T08:20:46.076Z,3.07
2023-01-11T08:23:13.034Z,3.01
2023-01-11T08:25:40.290Z,3.20
2023-01-11T08:28:09.467Z,3.40
2023-01-11T08:30:37.405Z,2.84
2023-01-11T08:33:05.444Z,3.32
2023-01-11T08:35:37.568Z,3.44
2023-01-11T08:38:04.422Z,3.09
2023-01-11T08:40:31.428Z,3.55
2023-01-11T08:42:58.111Z,3.86
2023-01-11T08:45:25.728Z,3.93
2023-01-11T08:47:53.366Z,3.78
2023-01-11T08:50:22.246Z,4.36
2023-01-11T08:52:51.340Z,4.66
2023-01-11T08:55:20.126Z,4.81
2023-01-11T08:57:47.614Z,4.93
2023-01-11T09:00:14.956Z,4.34
2023-01-11T09:02:42.579Z,5.03
2023-01-11T09:05:10.066Z,4.08
2023-01-11T09:07:36.832Z,4.42
2023-01-11T09:10:03.981Z,4.28
2023-01-11T09:12:32.672Z,4.22
2023-01-11T09:14:59.447Z,4.06
2023-01-11T09:17:27.048Z,4.07
2023-01-11T09:19:54.980Z,4.00
2023-01-11T09:22:21.947Z,3.69
2023-01-11T09:24:49.190Z,3.99
2023-01-11T09:27:16.543Z,3.80
2023-01-11T09:29:43.899Z,3.65
2023-01-11T09:32:10.781Z,3.55
2023-01-11T09:34:38.228Z,3.28
2023-01-11T09:37:07.111Z,3.15
2023-01-11T09:39:35.172Z,3.55
2023-01-11T09:42:32.531Z,3.63
2023-01-11T09:45:07.212Z,4.14
2023-01-11T09:47:41.459Z,4.07
2023-01-11T09:50:14.694Z,4.21
2023-01-11T09:52:46.164Z,3.68
2023-01-11T09:55:24.668Z,4.42
2023-01-11T09:58:16.818Z,4.98
2023-01-11T10:00:49.929Z,5.00
2023-01-11T10:03:46.004Z,4.36
2023-01-11T10:06:25.694Z,4.48
2023-01-11T10:18:30.558Z,4.91
2023-01-11T10:18:40.055Z,4.83
2023-01-11T10:20:44.052Z,5.17
2023-01-11T10:23:21.369Z,5.49
2023-01-11T10:25:51.962Z,5.38
2023-01-11T10:28:32.040Z,5.23
2023-01-11T10:30:58.779Z,4.96
2023-01-11T10:34:10.123Z,5.53
2023-01-11T10:37:35.746Z,5.60
2023-01-11T10:40:29.703Z,5.71
2023-01-11T10:43:22.305Z,5.54
2023-01-11T10:45:54.627Z,5.72
2023-01-11T10:48:33.420Z,5.92
2023-01-11T10:51:24.998Z,6.28
2023-01-11T10:53:55.053Z,6.40
2023-01-11T10:56:33.240Z,5.98
2023-01-11T10:59:22.341Z,4.94
2023-01-11T11:02:20.514Z,5.49
2023-01-11T11:04:59.949Z,5.91
2023-01-11T11:07:58.352Z,5.74
2023-01-11T11:10:37.518Z,5.82
2023-01-11T11:13:19.677Z,5.74
2023-01-11T11:16:04.814Z,5.86
2023-01-11T11:18:32.153Z,5.70
2023-01-11T11:21:04.696Z,5.58
2023-01-11T11:23:31.703Z,5.35
2023-01-11T11:26:02.279Z,5.63
2023-01-11T11:28:31.882Z,5.04
2023-01-11T11:31:02.500Z,5.28
2023-01-11T11:33:40.039Z,5.51
2023-01-11T11:36:13.620Z,5.77
2023-01-11T11:38:42.612Z,5.72
2023-01-11T11:41:15.674Z,5.57
2023-01-11T11:43:47.418Z,5.48
2023-01-11T11:46:18.837Z,5.61
2023-01-11T11:49:11.341Z,5.53
2023-01-11T11:51:39.217Z,5.38
2023-01-11T11:54:06.226Z,5.05
2023-01-11T11:56:41.447Z,4.91
2023-01-11T11:59:13.912Z,4.90
2023-01-11T12:01:47.179Z,4.92
2023-01-11T12:04:31.758Z,4.86
2023-01-11T12:07:15.151Z,4.59
2023-01-11T12:09:49.273Z,4.85
2023-01-11T12:12:21.270Z,4.86
2023-01-11T12:15:09.391Z,5.04
2023-01-11T12:17:36.964Z,5.13
2023-01-11T12:20:23.459Z,5.24
2023-01-11T12:22:53.853Z,5.43
2023-01-11T12:25:24.246Z,5.52
2023-01-11T12:28:20.386Z,5.69
2023-01-11T12:30:54.748Z,5.49
2023-01-11T12:33:21.480Z,5.51
2023-01-11T12:36:03.702Z,5.42
2023-01-11T12:38:39.771Z,5.32
2023-01-11T12:41:19.607Z,5.30
2023-01-11T12:44:11.021Z,5.16
2023-01-11T12:46:53.020Z,5.03
2023-01-11T12:49:38.183Z,5.01
2023-01-11T12:52:30.428Z,4.97
2023-01-11T12:55:25.013Z,4.97
2023-01-11T12:58:14.252Z,5.14
2023-01-11T13:00:53.746Z,5.13
2023-01-11T13:03:20.873Z,5.07
2023-01-11T13:06:12.358Z,5.11
2023-01-11T13:08:54.195Z,5.04
2023-01-11T13:11:38.156Z,5.16
2023-01-11T13:14:14.605Z,5.08
2023-01-11T13:17:15.355Z,5.10
2023-01-11T13:19:54.496Z,5.23
2023-01-11T13:22:28.891Z,5.09
2023-01-11T13:24:59.333Z,5.26
2023-01-11T13:27:28.844Z,5.18
2023-01-11T13:29:59.815Z,4.95
2023-01-11T13:32:33.174Z,4.65
2023-01-11T13:35:15.880Z,4.86
2023-01-11T13:38:30.650Z,5.01
2023-01-11T13:41:07.939Z,4.93
2023-01-11T13:43:56.071Z,4.89
2023-01-11T13:46:32.197Z,4.78
2023-01-11T13:49:11.345Z,4.79
2023-01-11T13:51:46.648Z,4.73
2023-01-11T13:54:26.932Z,4.00
2023-01-11T13:57:02.564Z,4.29
2023-01-11T13:59:46.501Z,4.23
2023-01-11T14:02:19.046Z,4.47
2023-01-11T14:05:11.126Z,4.33
2023-01-11T14:07:37.948Z,4.26
2023-01-11T14:10:15.379Z,3.84
2023-01-11T14:13:10.817Z,4.28
2023-01-11T14:15:44.580Z,4.22
2023-01-11T14:18:52.409Z,4.21
2023-01-11T14:21:41.610Z,4.26
2023-01-11T14:24:11.327Z,4.20
2023-01-11T14:27:00.275Z,4.26
2023-01-11T14:30:05.716Z,4.39
2023-01-11T14:32:40.541Z,4.36
2023-01-11T14:35:39.917Z,4.23
2023-01-11T14:38:35.869Z,4.10
2023-01-11T14:41:26.856Z,4.09
2023-01-11T14:44:30.380Z,3.51
2023-01-11T14:47:24.764Z,4.11
2023-01-11T14:49:53.716Z,4.15
2023-01-11T14:52:39.142Z,3.71
2023-01-11T14:55:17.889Z,3.76
2023-01-11T14:58:01.922Z,4.14
2023-01-11T15:00:28.687Z,4.03
2023-01-11T15:03:01.451Z,4.00
2023-01-11T15:05:31.579Z,3.98
2023-01-11T15:08:13.577Z,3.99
2023-01-11T15:11:20.871Z,4.28
2023-01-11T15:13:56.190Z,4.10
2023-01-11T15:17:03.921Z,4.13
2023-01-11T15:19:34.144Z,4.00
2023-01-11T15:22:04.681Z,4.08
2023-01-11T15:24:43.143Z,4.09
2023-01-11T15:27:37.556Z,3.53
2023-01-11T15:30:07.699Z,3.59
2023-01-11T15:32:36.280Z,3.49
2023-01-11T15:35:30.958Z,3.34
2023-01-11T15:38:21.095Z,3.26
2023-01-11T15:40:48.381Z,3.04
2023-01-11T15:43:21.119Z,3.07
2023-01-11T15:46:42.557Z,3.20
2023-01-11T15:49:38.007Z,2.72
2023-01-11T15:52:37.050Z,3.06
2023-01-11T15:55:35.410Z,3.03
2023-01-11T15:58:11.707Z,2.97
2023-01-11T16:00:47.675Z,2.98
2023-01-11T16:03:42.459Z,3.02
2023-01-11T16:06:33.809Z,2.96
2023-01-11T16:09:26.395Z,2.71
2023-01-11T16:11:56.379Z,2.92
2023-01-11T16:14:55.948Z,2.97
2023-01-11T16:17:24.903Z,2.85
2023-01-11T16:19:59.315Z,2.93
2023-01-11T16:22:28.456Z,2.63
2023-01-11T16:25:05.481Z,2.57
2023-01-11T16:27:35.120Z,2.62
2023-01-11T16:30:02.852Z,2.19
2023-01-11T16:32:35.619Z,2.61
2023-01-11T16:35:16.928Z,2.92
2023-01-11T16:37:55.381Z,2.95
2023-01-11T16:40:30.710Z,2.69
2023-01-11T16:43:16.211Z,3.02
2023-01-11T16:45:44.685Z,3.06
2023-01-11T16:48:19.876Z,2.80
2023-01-11T16:51:03.889Z,2.21
2023-01-11T16:53:42.701Z,2.18
2023-01-11T16:56:20.483Z,2.66
2023-01-11T16:59:06.045Z,2.81
2023-01-11T17:01:59.311Z,3.05
2023-01-11T17:04:41.418Z,2.78
2023-01-11T17:07:23.146Z,3.18
2023-01-11T17:09:50.430Z,3.09
2023-01-11T17:12:26.015Z,2.99
2023-01-11T17:15:03.327Z,3.18
2023-01-11T17:17:36.295Z,2.94
2023-01-11T17:20:04.663Z,2.86
2023-01-11T17:22:34.285Z,3.17
2023-01-11T17:25:16.441Z,2.95
2023-01-11T17:27:51.057Z,2.68
2023-01-11T17:30:21.997Z,2.35
2023-01-11T17:32:51.539Z,2.80
2023-01-11T17:35:27.669Z,2.23
2023-01-11T17:37:58.213Z,2.39
2023-01-11T17:40:38.306Z,2.66
2023-01-11T17:43:32.576Z,3.00
2023-01-11T17:46:02.821Z,2.46
2023-01-11T17:48:30.578Z,2.00
2023-01-11T17:51:00.243Z,2.32
2023-01-11T17:53:32.551Z,2.98
2023-01-11T17:56:00.414Z,2.94
2023-01-11T17:58:29.431Z,3.00
2023-01-11T18:01:08.426Z,3.05
2023-01-11T18:03:49.054Z,3.02
2023-01-11T18:06:16.297Z,3.09
2023-01-11T18:08:48.823Z,2.14
2023-01-11T18:11:23.455Z,3.05
2023-01-11T18:13:55.930Z,2.17
2023-01-11T18:16:23.376Z,2.23
2023-01-11T18:18:52.631Z,3.05
2023-01-11T18:21:25.512Z,3.05
2023-01-11T18:24:24.234Z,2.99
2023-01-11T18:27:15.374Z,2.74
2023-01-11T18:29:47.009Z,2.63
2023-01-11T18:32:15.290Z,2.68
2023-01-11T18:34:44.360Z,2.67
2023-01-11T18:37:11.699Z,2.60
2023-01-11T18:39:53.715Z,2.45
2023-01-11T18:42:24.908Z,2.51
2023-01-11T18:44:51.782Z,2.63
2023-01-11T18:47:22.681Z,2.75
2023-01-11T18:49:51.178Z,2.57
2023-01-11T18:52:20.604Z,2.74
2023-01-11T18:54:47.911Z,2.76
2023-01-11T18:57:14.805Z,2.73
2023-01-11T18:59:41.632Z,2.45
2023-01-11T19:02:23.798Z,2.64
2023-01-11T19:04:52.308Z,2.42
2023-01-11T19:07:20.207Z,2.49
2023-01-11T19:09:47.232Z,2.58
2023-01-11T19:12:14.873Z,2.62
2023-01-11T19:14:41.990Z,2.48
2023-01-11T19:17:12.408Z,2.46
2023-01-11T19:19:39.457Z,2.44
2023-01-11T19:22:06.743Z,2.51
2023-01-11T19:24:33.755Z,2.36
2023-01-11T19:27:00.605Z,2.45
2023-01-11T19:29:27.620Z,2.20
2023-01-11T19:31:55.855Z,2.32
2023-01-11T19:34:23.068Z,2.34
2023-01-11T19:36:51.740Z,2.25
2023-01-11T19:39:19.138Z,2.31
2023-01-11T19:41:55.207Z,2.36
2023-01-11T19:44:22.599Z,2.29
2023-01-11T19:46:56.742Z,2.23
2023-01-11T19:49:24.192Z,2.13
2023-01-11T19:51:51.218Z,2.13
2023-01-11T19:54:20.825Z,2.18
2023-01-11T19:56:49.413Z,2.25
2023-01-11T19:59:16.456Z,1.92
2023-01-11T20:01:44.103Z,2.07
2023-01-11T20:04:12.978Z,2.10
2023-01-11T20:06:50.353Z,2.09
2023-01-11T20:09:18.774Z,2.07
2023-01-11T20:11:46.622Z,2.04
2023-01-11T20:14:13.433Z,2.00
2023-01-11T20:16:40.226Z,2.17
2023-01-11T20:19:07.300Z,2.23
2023-01-11T20:21:34.511Z,1.96
2023-01-11T20:24:10.093Z,2.10
2023-01-11T20:26:36.965Z,2.11
2023-01-11T20:29:05.611Z,2.28
2023-01-11T20:31:35.187Z,2.24
2023-01-11T20:34:07.922Z,2.25
2023-01-11T20:36:35.191Z,2.23
2023-01-11T20:39:01.907Z,2.26
2023-01-11T20:41:47.252Z,2.26
2023-01-11T20:44:20.124Z,2.10
2023-01-11T20:46:48.434Z,2.05
2023-01-11T20:49:16.301Z,2.02
2023-01-11T20:51:43.854Z,2.04
2023-01-11T20:54:11.200Z,2.04
2023-01-11T20:56:38.749Z,2.07
2023-01-11T20:59:07.424Z,2.04
2023-01-11T21:01:34.593Z,2.23
2023-01-11T21:04:03.824Z,2.18
2023-01-11T21:06:32.412Z,2.06
2023-01-11T21:09:00.512Z,2.10
2023-01-11T21:11:28.205Z,2.19
2023-01-11T21:13:56.097Z,2.19
2023-01-11T21:16:27.979Z,2.17
2023-01-11T21:19:03.224Z,2.21
2023-01-11T21:21:32.288Z,2.20
2023-01-11T21:24:01.718Z,1.67
2023-01-11T21:26:29.555Z,2.20
2023-01-11T21:28:59.450Z,2.13
2023-01-11T21:31:28.425Z,2.16
2023-01-11T21:33:55.392Z,1.96
2023-01-11T21:36:24.045Z,2.03
2023-01-11T21:38:51.231Z,1.86
2023-01-11T21:41:43.810Z,1.91
2023-01-11T21:44:11.191Z,1.88
2023-01-11T21:46:38.128Z,1.76
2023-01-11T21:49:05.300Z,1.74
2023-01-11T21:51:32.307Z,1.75
2023-01-11T21:54:22.613Z,1.66
2023-01-11T21:56:52.480Z,1.59
2023-01-11T21:59:20.389Z,1.35
2023-01-11T22:01:49.257Z,1.60
2023-01-11T22:04:18.052Z,1.58
2023-01-11T22:06:56.649Z,1.36
2023-01-11T22:09:27.421Z,1.47
2023-01-11T22:11:55.445Z,1.42
2023-01-11T22:14:22.136Z,1.39
2023-01-11T22:16:48.820Z,1.40
2023-01-11T22:19:15.850Z,1.05
2023-01-11T22:21:42.559Z,1.17
2023-01-11T22:24:11.516Z,1.21
2023-01-11T22:26:39.155Z,1.31
2023-01-11T22:29:16.320Z,1.20
2023-01-11T22:31:46.981Z,1.12
2023-01-11T22:34:14.755Z,1.11
2023-01-11T22:36:42.214Z,1.08
2023-01-11T22:39:09.146Z,1.07
2023-01-11T22:41:35.995Z,1.05
2023-01-11T22:44:03.018Z,0.99
2023-01-11T22:46:29.916Z,1.04
2023-01-11T22:48:56.471Z,1.07
2023-01-11T22:51:25.325Z,1.03
2023-01-11T22:53:54.130Z,0.79
2023-01-11T22:56:23.746Z,1.02
2023-01-11T22:58:51.190Z,0.95
2023-01-11T23:01:20.820Z,0.71
2023-01-11T23:03:47.875Z,0.84
2023-01-11T23:06:20.503Z,0.64
2023-01-11T23:08:47.552Z,0.61
2023-01-11T23:11:38.322Z,0.82
2023-01-11T23:14:06.737Z,0.80
2023-01-11T23:16:33.660Z,0.85
2023-01-11T23:19:00.604Z,0.87
2023-01-11T23:21:27.813Z,0.91
2023-01-11T23:23:54.551Z,1.00
2023-01-11T23:26:21.785Z,0.94
2023-01-11T23:28:50.681Z,1.14
2023-01-11T23:31:20.567Z,1.18
2023-01-11T23:33:51.942Z,1.16
2023-01-11T23:36:20.701Z,0.94
2023-01-11T23:38:48.306Z,1.18
2023-01-11T23:41:35.663Z,1.16
2023-01-11T23:44:05.245Z,1.23
2023-01-11T23:46:50.900Z,1.21
2023-01-11T23:49:17.983Z,1.07
2023-01-11T23:51:45.249Z,1.10
2023-01-11T23:54:12.231Z,1.28
2023-01-11T23:56:39.585Z,1.15
2023-01-11T23:59:07.447Z,1.24
